sensor_id;sensor_type;location;lat;lon;timestamp;pressure;altitude;pressure_sealevel;temperature;humidity
75794;BME280;64418;47.536;19.074;2023-07-13T00:01:40;100055.28;;;23.00;82.98
75794;BME280;64418;47.536;19.074;2023-07-13T00:04:07;100068.00;;;23.01;84.55
75794;BME280;64418;47.536;19.074;2023-07-13T00:06:53;100054.37;;;22.86;85.19
75794;BME280;64418;47.536;19.074;2023-07-13T00:09:20;100060.63;;;22.73;85.73
75794;BME280;64418;47.536;19.074;2023-07-13T00:11:51;100074.50;;;22.63;86.55
75794;BME280;64418;47.536;19.074;2023-07-13T00:14:18;100064.09;;;22.55;87.77
75794;BME280;64418;47.536;19.074;2023-07-13T00:16:45;100040.94;;;22.51;86.80
75794;BME280;64418;47.536;19.074;2023-07-13T00:19:33;100024.13;;;22.47;86.63
75794;BME280;64418;47.536;19.074;2023-07-13T00:21:59;100028.28;;;22.50;86.23
75794;BME280;64418;47.536;19.074;2023-07-13T00:24:25;100038.84;;;22.43;85.60
75794;BME280;64418;47.536;19.074;2023-07-13T00:27:13;100015.56;;;22.49;85.37
75794;BME280;64418;47.536;19.074;2023-07-13T00:30:00;99989.03;;;22.53;84.50
75794;BME280;64418;47.536;19.074;2023-07-13T00:32:26;99979.03;;;22.57;82.35
75794;BME280;64418;47.536;19.074;2023-07-13T00:35:15;99960.31;;;22.54;81.39
75794;BME280;64418;47.536;19.074;2023-07-13T00:38:02;99963.34;;;22.76;79.91
75794;BME280;64418;47.536;19.074;2023-07-13T00:40:28;99958.78;;;22.85;80.21
75794;BME280;64418;47.536;19.074;2023-07-13T00:42:57;99942.66;;;22.92;78.96
75794;BME280;64418;47.536;19.074;2023-07-13T00:46:10;99938.72;;;22.98;78.45
75794;BME280;64418;47.536;19.074;2023-07-13T00:48:37;99956.19;;;22.94;76.45
75794;BME280;64418;47.536;19.074;2023-07-13T00:51:31;99916.16;;;22.91;76.76
75794;BME280;64418;47.536;19.074;2023-07-13T00:54:04;99939.22;;;23.00;77.08
75794;BME280;64418;47.536;19.074;2023-07-13T00:56:31;99929.59;;;22.98;76.68
75794;BME280;64418;47.536;19.074;2023-07-13T00:58:59;99925.94;;;23.02;76.59
75794;BME280;64418;47.536;19.074;2023-07-13T01:01:26;99914.69;;;22.99;76.16
75794;BME280;64418;47.536;19.074;2023-07-13T01:04:13;99911.09;;;22.98;76.42
75794;BME280;64418;47.536;19.074;2023-07-13T01:06:41;99910.47;;;23.01;75.98
75794;BME280;64418;47.536;19.074;2023-07-13T01:09:08;99914.50;;;23.09;75.18
75794;BME280;64418;47.536;19.074;2023-07-13T01:11:54;99915.34;;;23.10;75.06
75794;BME280;64418;47.536;19.074;2023-07-13T01:14:21;99923.09;;;23.08;75.28
75794;BME280;64418;47.536;19.074;2023-07-13T01:16:49;99925.94;;;23.02;75.74
75794;BME280;64418;47.536;19.074;2023-07-13T01:19:24;99937.00;;;23.02;75.42
75794;BME280;64418;47.536;19.074;2023-07-13T01:22:18;99933.63;;;23.06;75.23
75794;BME280;64418;47.536;19.074;2023-07-13T01:24:46;99931.31;;;22.94;75.58
75794;BME280;64418;47.536;19.074;2023-07-13T01:27:33;99932.06;;;22.99;75.85
75794;BME280;64418;47.536;19.074;2023-07-13T01:29:59;99940.28;;;22.86;76.52
75794;BME280;64418;47.536;19.074;2023-07-13T01:32:25;99927.06;;;22.83;76.92
75794;BME280;64418;47.536;19.074;2023-07-13T01:34:51;99919.81;;;22.87;76.34
75794;BME280;64418;47.536;19.074;2023-07-13T01:37:20;99914.22;;;22.92;76.65
75794;BME280;64418;47.536;19.074;2023-07-13T01:39:47;99921.53;;;22.83;77.35
75794;BME280;64418;47.536;19.074;2023-07-13T01:42:14;99916.16;;;22.73;77.46
75794;BME280;64418;47.536;19.074;2023-07-13T01:44:40;99918.72;;;22.64;79.05
75794;BME280;64418;47.536;19.074;2023-07-13T01:47:07;99906.41;;;22.56;79.84
75794;BME280;64418;47.536;19.074;2023-07-13T01:49:53;99902.53;;;22.58;79.59
75794;BME280;64418;47.536;19.074;2023-07-13T01:52:22;99894.16;;;22.63;79.75
75794;BME280;64418;47.536;19.074;2023-07-13T01:54:48;99900.22;;;22.46;81.46
75794;BME280;64418;47.536;19.074;2023-07-13T01:57:34;99889.06;;;22.32;82.13
75794;BME280;64418;47.536;19.074;2023-07-13T02:00:02;99890.34;;;22.40;82.39
75794;BME280;64418;47.536;19.074;2023-07-13T02:02:29;99874.50;;;22.27;82.50
75794;BME280;64418;47.536;19.074;2023-07-13T02:04:55;99889.72;;;22.24;83.81
75794;BME280;64418;47.536;19.074;2023-07-13T02:07:44;99883.06;;;22.25;83.66
75794;BME280;64418;47.536;19.074;2023-07-13T02:10:12;99877.94;;;22.19;84.03
75794;BME280;64418;47.536;19.074;2023-07-13T02:12:40;99882.97;;;22.12;84.13
75794;BME280;64418;47.536;19.074;2023-07-13T02:15:07;99883.56;;;22.08;84.13
75794;BME280;64418;47.536;19.074;2023-07-13T02:17:33;99885.78;;;22.06;84.70
75794;BME280;64418;47.536;19.074;2023-07-13T02:19:59;99885.91;;;21.96;85.66
75794;BME280;64418;47.536;19.074;2023-07-13T02:22:26;99894.53;;;21.90;85.82
75794;BME280;64418;47.536;19.074;2023-07-13T02:24:53;99890.47;;;21.82;86.53
75794;BME280;64418;47.536;19.074;2023-07-13T02:27:20;99896.53;;;21.79;86.33
75794;BME280;64418;47.536;19.074;2023-07-13T02:29:46;99898.91;;;21.67;87.44
75794;BME280;64418;47.536;19.074;2023-07-13T02:32:33;99898.91;;;21.67;87.44
75794;BME280;64418;47.536;19.074;2023-07-13T02:35:00;99886.87;;;21.53;88.02
75794;BME280;64418;47.536;19.074;2023-07-13T02:37:26;99901.47;;;21.58;87.84
75794;BME280;64418;47.536;19.074;2023-07-13T02:39:53;99910.78;;;21.62;88.28
75794;BME280;64418;47.536;19.074;2023-07-13T02:42:19;99916.34;;;21.57;89.04
75794;BME280;64418;47.536;19.074;2023-07-13T02:44:45;99915.75;;;21.60;89.04
75794;BME280;64418;47.536;19.074;2023-07-13T02:47:12;99899.56;;;21.54;89.88
75794;BME280;64418;47.536;19.074;2023-07-13T02:49:39;99891.31;;;21.49;90.18
75794;BME280;64418;47.536;19.074;2023-07-13T02:52:06;99913.38;;;21.49;90.54
75794;BME280;64418;47.536;19.074;2023-07-13T02:54:54;99914.78;;;21.46;91.04
75794;BME280;64418;47.536;19.074;2023-07-13T02:57:20;99914.56;;;21.43;91.08
75794;BME280;64418;47.536;19.074;2023-07-13T02:59:46;99911.91;;;21.33;92.11
75794;BME280;64418;47.536;19.074;2023-07-13T03:02:33;99911.94;;;21.28;92.85
75794;BME280;64418;47.536;19.074;2023-07-13T03:04:59;99927.38;;;21.24;93.33
75794;BME280;64418;47.536;19.074;2023-07-13T03:07:25;99920.81;;;21.20;93.63
75794;BME280;64418;47.536;19.074;2023-07-13T03:10:13;99934.56;;;21.25;93.36
75794;BME280;64418;47.536;19.074;2023-07-13T03:12:39;99941.72;;;21.26;92.43
75794;BME280;64418;47.536;19.074;2023-07-13T03:15:06;99944.50;;;21.21;92.36
75794;BME280;64418;47.536;19.074;2023-07-13T03:17:32;99955.00;;;21.19;92.06
75794;BME280;64418;47.536;19.074;2023-07-13T03:19:59;99952.75;;;21.21;91.78
75794;BME280;64418;47.536;19.074;2023-07-13T03:22:25;99952.75;;;21.21;91.93
75794;BME280;64418;47.536;19.074;2023-07-13T03:24:51;99948.06;;;21.26;91.51
75794;BME280;64418;47.536;19.074;2023-07-13T03:27:22;99953.25;;;21.28;91.34
75794;BME280;64418;47.536;19.074;2023-07-13T03:29:49;99933.94;;;21.33;90.97
75794;BME280;64418;47.536;19.074;2023-07-13T03:32:15;99923.44;;;21.35;90.64
75794;BME280;64418;47.536;19.074;2023-07-13T03:34:42;99942.16;;;21.38;90.63
75794;BME280;64418;47.536;19.074;2023-07-13T03:37:08;99945.72;;;21.38;90.44
75794;BME280;64418;47.536;19.074;2023-07-13T03:39:54;99923.41;;;21.40;90.48
75794;BME280;64418;47.536;19.074;2023-07-13T03:42:22;99921.16;;;21.42;90.12
75794;BME280;64418;47.536;19.074;2023-07-13T03:44:48;99926.84;;;21.55;89.30
75794;BME280;64418;47.536;19.074;2023-07-13T03:47:15;99929.03;;;21.58;88.94
75794;BME280;64418;47.536;19.074;2023-07-13T03:49:41;99948.53;;;21.67;88.39
75794;BME280;64418;47.536;19.074;2023-07-13T03:52:07;99950.97;;;21.69;87.87
75794;BME280;64418;47.536;19.074;2023-07-13T03:54:34;99932.81;;;21.68;87.40
75794;BME280;64418;47.536;19.074;2023-07-13T03:57:22;99953.84;;;21.87;86.42
75794;BME280;64418;47.536;19.074;2023-07-13T03:59:48;99956.03;;;21.90;85.89
75794;BME280;64418;47.536;19.074;2023-07-13T04:02:15;99949.97;;;21.93;86.03
75794;BME280;64418;47.536;19.074;2023-07-13T04:04:41;99950.72;;;21.99;85.79
75794;BME280;64418;47.536;19.074;2023-07-13T04:07:07;99943.22;;;22.04;85.22
75794;BME280;64418;47.536;19.074;2023-07-13T04:09:53;99937.34;;;22.11;84.78
75794;BME280;64418;47.536;19.074;2023-07-13T04:12:21;99950.78;;;22.18;83.24
75794;BME280;64418;47.536;19.074;2023-07-13T04:14:48;99972.81;;;22.23;83.04
75794;BME280;64418;47.536;19.074;2023-07-13T04:17:14;99992.66;;;22.25;82.89
75794;BME280;64418;47.536;19.074;2023-07-13T04:19:40;100008.72;;;22.18;82.20
75794;BME280;64418;47.536;19.074;2023-07-13T04:22:07;100024.16;;;22.24;81.80
75794;BME280;64418;47.536;19.074;2023-07-13T04:24:33;100034.00;;;22.30;81.30
75794;BME280;64418;47.536;19.074;2023-07-13T04:26:59;100041.06;;;22.41;80.59
75794;BME280;64418;47.536;19.074;2023-07-13T04:29:26;100035.31;;;22.61;79.94
75794;BME280;64418;47.536;19.074;2023-07-13T04:32:13;100035.12;;;22.52;79.10
75794;BME280;64418;47.536;19.074;2023-07-13T04:34:39;100030.47;;;22.48;79.08
75794;BME280;64418;47.536;19.074;2023-07-13T04:37:05;100037.16;;;22.47;78.61
75794;BME280;64418;47.536;19.074;2023-07-13T04:39:31;100034.22;;;22.62;78.45
75794;BME280;64418;47.536;19.074;2023-07-13T04:41:58;100033.16;;;22.58;78.46
75794;BME280;64418;47.536;19.074;2023-07-13T04:44:23;100045.91;;;22.54;79.04
75794;BME280;64418;47.536;19.074;2023-07-13T04:46:51;100046.00;;;22.44;79.18
75794;BME280;64418;47.536;19.074;2023-07-13T04:49:17;100057.03;;;22.44;80.45
75794;BME280;64418;47.536;19.074;2023-07-13T04:52:05;100069.69;;;22.50;79.74
75794;BME280;64418;47.536;19.074;2023-07-13T04:54:51;100071.56;;;22.26;82.69
75794;BME280;64418;47.536;19.074;2023-07-13T04:57:18;100084.59;;;21.86;85.16
75794;BME280;64418;47.536;19.074;2023-07-13T04:59:45;100091.97;;;21.57;87.91
75794;BME280;64418;47.536;19.074;2023-07-13T05:02:34;100093.12;;;21.51;89.13
75794;BME280;64418;47.536;19.074;2023-07-13T05:05:20;100120.72;;;21.46;89.15
75794;BME280;64418;47.536;19.074;2023-07-13T05:07:47;100072.47;;;20.89;90.70
75794;BME280;64418;47.536;19.074;2023-07-13T05:10:33;100147.56;;;21.20;91.05
75794;BME280;64418;47.536;19.074;2023-07-13T05:12:59;100183.66;;;21.08;91.15
75794;BME280;64418;47.536;19.074;2023-07-13T05:15:25;100214.28;;;21.17;92.00
75794;BME280;64418;47.536;19.074;2023-07-13T05:18:13;100237.72;;;21.15;93.72
75794;BME280;64418;47.536;19.074;2023-07-13T05:20:39;100243.19;;;21.25;92.99
75794;BME280;64418;47.536;19.074;2023-07-13T05:23:06;100254.19;;;21.30;91.30
75794;BME280;64418;47.536;19.074;2023-07-13T05:25:52;100270.22;;;21.12;92.34
75794;BME280;64418;47.536;19.074;2023-07-13T05:28:20;100238.84;;;20.68;94.97
75794;BME280;64418;47.536;19.074;2023-07-13T05:30:46;100230.00;;;20.36;96.28
75794;BME280;64418;47.536;19.074;2023-07-13T05:33:34;100236.87;;;20.23;96.72
75794;BME280;64418;47.536;19.074;2023-07-13T05:36:20;100226.13;;;20.01;98.07
75794;BME280;64418;47.536;19.074;2023-07-13T05:38:47;100241.53;;;20.17;97.11
75794;BME280;64418;47.536;19.074;2023-07-13T05:41:33;100240.72;;;20.22;97.01
75794;BME280;64418;47.536;19.074;2023-07-13T05:44:02;100239.59;;;20.18;97.36
75794;BME280;64418;47.536;19.074;2023-07-13T05:46:28;100231.06;;;20.14;97.37
75794;BME280;64418;47.536;19.074;2023-07-13T05:48:58;100210.16;;;20.03;98.08
75794;BME280;64418;47.536;19.074;2023-07-13T05:51:27;100228.88;;;20.01;96.40
75794;BME280;64418;47.536;19.074;2023-07-13T05:54:14;100232.69;;;19.90;96.90
75794;BME280;64418;47.536;19.074;2023-07-13T05:57:10;100221.09;;;19.83;96.13
75794;BME280;64418;47.536;19.074;2023-07-13T05:59:42;100211.72;;;19.69;97.85
75794;BME280;64418;47.536;19.074;2023-07-13T06:02:10;100203.41;;;19.54;98.82
75794;BME280;64418;47.536;19.074;2023-07-13T06:07:51;100207.81;;;19.45;99.97
75794;BME280;64418;47.536;19.074;2023-07-13T06:10:17;100119.59;;;18.84;100.00
75794;BME280;64418;47.536;19.074;2023-07-13T06:12:44;100173.03;;;19.23;100.00
75794;BME280;64418;47.536;19.074;2023-07-13T06:15:12;100146.63;;;19.12;100.00
75794;BME280;64418;47.536;19.074;2023-07-13T06:17:38;100105.97;;;19.09;100.00
75794;BME280;64418;47.536;19.074;2023-07-13T06:22:53;99833.56;;;19.07;100.00
75794;BME280;64418;47.536;19.074;2023-07-13T06:30:38;99930.78;;;19.16;100.00
75794;BME280;64418;47.536;19.074;2023-07-13T06:33:05;99823.44;;;19.03;100.00
75794;BME280;64418;47.536;19.074;2023-07-13T06:35:33;99847.28;;;19.28;100.00
75794;BME280;64418;47.536;19.074;2023-07-13T06:38:05;99835.19;;;19.49;100.00
75794;BME280;64418;47.536;19.074;2023-07-13T06:40:33;99864.56;;;19.53;100.00
75794;BME280;64418;47.536;19.074;2023-07-13T06:43:19;99866.72;;;19.71;99.53
75794;BME280;64418;47.536;19.074;2023-07-13T06:45:47;99873.78;;;20.08;97.34
75794;BME280;64418;47.536;19.074;2023-07-13T06:48:33;99884.53;;;19.99;97.22
75794;BME280;64418;47.536;19.074;2023-07-13T06:51:05;99895.47;;;20.14;96.84
75794;BME280;64418;47.536;19.074;2023-07-13T06:53:35;99874.25;;;20.25;96.74
75794;BME280;64418;47.536;19.074;2023-07-13T06:56:04;99880.78;;;20.49;94.56
75794;BME280;64418;47.536;19.074;2023-07-13T07:05:16;99887.31;;;21.02;90.16
75794;BME280;64418;47.536;19.074;2023-07-13T07:10:41;99871.66;;;21.60;87.18
75794;BME280;64418;47.536;19.074;2023-07-13T07:17:02;99911.50;;;22.02;86.49
75794;BME280;64418;47.536;19.074;2023-07-13T07:19:51;99990.75;;;21.96;86.63
75794;BME280;64418;47.536;19.074;2023-07-13T07:22:18;100028.31;;;21.87;87.02
75794;BME280;64418;47.536;19.074;2023-07-13T07:24:45;100015.31;;;22.22;86.22
75794;BME280;64418;47.536;19.074;2023-07-13T07:27:34;100029.44;;;22.44;85.17
75794;BME280;64418;47.536;19.074;2023-07-13T07:30:21;100028.16;;;22.60;83.73
75794;BME280;64418;47.536;19.074;2023-07-13T07:32:47;100048.66;;;22.78;81.77
75794;BME280;64418;47.536;19.074;2023-07-13T07:35:34;100052.59;;;22.95;81.60
75794;BME280;64418;47.536;19.074;2023-07-13T07:38:00;100046.78;;;22.21;81.88
75794;BME280;64418;47.536;19.074;2023-07-13T07:40:26;100076.25;;;22.01;83.89
75794;BME280;64418;47.536;19.074;2023-07-13T07:43:14;100065.47;;;22.29;81.95
75794;BME280;64418;47.536;19.074;2023-07-13T07:46:01;100076.50;;;22.29;80.88
75794;BME280;64418;47.536;19.074;2023-07-13T07:48:28;100075.97;;;22.32;80.51
75794;BME280;64418;47.536;19.074;2023-07-13T07:50:54;100093.25;;;22.66;79.79
75794;BME280;64418;47.536;19.074;2023-07-13T07:53:20;100092.28;;;22.52;78.89
75794;BME280;64418;47.536;19.074;2023-07-13T07:55:46;100095.66;;;22.49;78.73
75794;BME280;64418;47.536;19.074;2023-07-13T07:58:33;100090.34;;;22.81;77.83
75794;BME280;64418;47.536;19.074;2023-07-13T08:01:03;100087.87;;;23.03;76.16
75794;BME280;64418;47.536;19.074;2023-07-13T08:03:29;100093.00;;;22.91;76.56
75794;BME280;64418;47.536;19.074;2023-07-13T08:05:55;100094.78;;;23.25;76.45
75794;BME280;64418;47.536;19.074;2023-07-13T08:08:41;100104.47;;;23.03;77.30
75794;BME280;64418;47.536;19.074;2023-07-13T08:11:08;100094.84;;;23.38;76.67
75794;BME280;64418;47.536;19.074;2023-07-13T08:13:36;100092.28;;;23.47;75.42
75794;BME280;64418;47.536;19.074;2023-07-13T08:16:22;100097.66;;;23.57;74.07
75794;BME280;64418;47.536;19.074;2023-07-13T08:18:49;100081.37;;;23.74;73.53
75794;BME280;64418;47.536;19.074;2023-07-13T08:21:15;100079.28;;;23.98;72.60
75794;BME280;64418;47.536;19.074;2023-07-13T08:24:00;100095.09;;;23.98;73.10
75794;BME280;64418;47.536;19.074;2023-07-13T08:26:26;100097.87;;;24.17;72.03
75794;BME280;64418;47.536;19.074;2023-07-13T08:29:14;100096.00;;;24.72;70.59
75794;BME280;64418;47.536;19.074;2023-07-13T08:31:40;100101.94;;;25.47;66.97
75794;BME280;64418;47.536;19.074;2023-07-13T08:34:06;100101.75;;;25.44;67.28
75794;BME280;64418;47.536;19.074;2023-07-13T08:36:32;100097.87;;;26.03;65.01
75794;BME280;64418;47.536;19.074;2023-07-13T08:38:58;100097.03;;;26.77;63.61
75794;BME280;64418;47.536;19.074;2023-07-13T08:41:45;100092.44;;;27.04;62.22
75794;BME280;64418;47.536;19.074;2023-07-13T08:44:50;100093.25;;;25.76;64.91
75794;BME280;64418;47.536;19.074;2023-07-13T08:47:21;100087.38;;;26.44;62.77
75794;BME280;64418;47.536;19.074;2023-07-13T08:49:50;100095.59;;;26.49;62.01
75794;BME280;64418;47.536;19.074;2023-07-13T08:52:30;100095.78;;;26.84;60.81
75794;BME280;64418;47.536;19.074;2023-07-13T08:54:58;100094.69;;;26.18;62.19
75794;BME280;64418;47.536;19.074;2023-07-13T08:57:54;100105.97;;;25.91;62.95
75794;BME280;64418;47.536;19.074;2023-07-13T09:00:50;100104.22;;;25.45;64.34
75794;BME280;64418;47.536;19.074;2023-07-13T09:03:22;100098.37;;;25.33;64.47
75794;BME280;64418;47.536;19.074;2023-07-13T09:05:54;100108.97;;;25.80;63.31
75794;BME280;64418;47.536;19.074;2023-07-13T09:08:50;100097.00;;;25.58;63.98
75794;BME280;64418;47.536;19.074;2023-07-13T09:11:46;100107.28;;;25.57;64.00
75794;BME280;64418;47.536;19.074;2023-07-13T09:14:31;100101.97;;;25.20;64.40
75794;BME280;64418;47.536;19.074;2023-07-13T09:17:03;100096.81;;;25.27;64.85
75794;BME280;64418;47.536;19.074;2023-07-13T09:19:32;100102.47;;;26.07;61.89
75794;BME280;64418;47.536;19.074;2023-07-13T09:22:02;100103.41;;;26.78;60.36
75794;BME280;64418;47.536;19.074;2023-07-13T09:24:36;100101.87;;;26.94;60.24
75794;BME280;64418;47.536;19.074;2023-07-13T09:27:10;100103.19;;;26.66;60.22
75794;BME280;64418;47.536;19.074;2023-07-13T09:29:41;100102.03;;;26.58;60.49
75794;BME280;64418;47.536;19.074;2023-07-13T09:32:14;100111.91;;;26.20;61.55
75794;BME280;64418;47.536;19.074;2023-07-13T09:35:10;100110.97;;;26.24;61.64
75794;BME280;64418;47.536;19.074;2023-07-13T09:37:37;100108.84;;;25.85;61.68
75794;BME280;64418;47.536;19.074;2023-07-13T09:40:08;100112.63;;;25.67;61.52
75794;BME280;64418;47.536;19.074;2023-07-13T09:42:37;100125.97;;;25.65;62.38
75794;BME280;64418;47.536;19.074;2023-07-13T09:45:04;100105.53;;;25.61;62.40
75794;BME280;64418;47.536;19.074;2023-07-13T09:47:37;100121.41;;;25.83;62.32
75794;BME280;64418;47.536;19.074;2023-07-13T09:50:06;100124.72;;;25.71;61.88
75794;BME280;64418;47.536;19.074;2023-07-13T09:52:41;100121.91;;;25.85;61.68
75794;BME280;64418;47.536;19.074;2023-07-13T09:55:24;100122.63;;;26.97;58.74
75794;BME280;64418;47.536;19.074;2023-07-13T09:58:12;100129.22;;;26.39;60.04
75794;BME280;64418;47.536;19.074;2023-07-13T10:00:39;100128.31;;;26.30;60.13
75794;BME280;64418;47.536;19.074;2023-07-13T10:03:17;100116.81;;;26.76;59.19
75794;BME280;64418;47.536;19.074;2023-07-13T10:06:12;100126.81;;;27.16;58.43
75794;BME280;64418;47.536;19.074;2023-07-13T10:08:39;100122.88;;;28.17;55.11
75794;BME280;64418;47.536;19.074;2023-07-13T10:11:10;100119.59;;;27.98;54.59
75794;BME280;64418;47.536;19.074;2023-07-13T10:13:37;100127.63;;;27.82;54.98
75794;BME280;64418;47.536;19.074;2023-07-13T10:16:07;100121.87;;;27.79;54.45
75794;BME280;64418;47.536;19.074;2023-07-13T10:18:57;100122.37;;;28.15;53.87
75794;BME280;64418;47.536;19.074;2023-07-13T10:21:28;100127.41;;;29.02;51.90
75794;BME280;64418;47.536;19.074;2023-07-13T10:24:02;100124.87;;;28.89;51.60
75794;BME280;64418;47.536;19.074;2023-07-13T10:26:32;100122.31;;;28.58;52.71
75794;BME280;64418;47.536;19.074;2023-07-13T10:29:02;100126.44;;;28.43;52.87
75794;BME280;64418;47.536;19.074;2023-07-13T10:31:53;100135.81;;;28.94;52.04
75794;BME280;64418;47.536;19.074;2023-07-13T10:34:21;100130.84;;;29.08;51.13
75794;BME280;64418;47.536;19.074;2023-07-13T10:36:48;100134.38;;;29.55;49.80
75794;BME280;64418;47.536;19.074;2023-07-13T10:39:35;100134.34;;;29.34;49.31
75794;BME280;64418;47.536;19.074;2023-07-13T10:42:29;100131.03;;;29.41;48.55
75794;BME280;64418;47.536;19.074;2023-07-13T10:44:57;100143.62;;;29.09;48.97
75794;BME280;64418;47.536;19.074;2023-07-13T10:47:24;100144.63;;;29.72;47.70
75794;BME280;64418;47.536;19.074;2023-07-13T10:50:17;100139.75;;;29.89;46.92
75794;BME280;64418;47.536;19.074;2023-07-13T10:52:47;100117.66;;;29.17;48.57
75794;BME280;64418;47.536;19.074;2023-07-13T10:55:36;100138.97;;;29.30;48.04
75794;BME280;64418;47.536;19.074;2023-07-13T10:58:27;100140.16;;;29.12;48.55
75794;BME280;64418;47.536;19.074;2023-07-13T11:01:06;100150.16;;;30.01;46.97
75794;BME280;64418;47.536;19.074;2023-07-13T11:04:00;100135.31;;;29.38;46.82
75794;BME280;64418;47.536;19.074;2023-07-13T11:06:34;100125.31;;;29.58;47.57
75794;BME280;64418;47.536;19.074;2023-07-13T11:09:35;100125.44;;;29.61;46.45
75794;BME280;64418;47.536;19.074;2023-07-13T11:15:11;100126.81;;;30.83;44.33
75794;BME280;64418;47.536;19.074;2023-07-13T11:17:48;100136.66;;;30.56;44.49
75794;BME280;64418;47.536;19.074;2023-07-13T11:20:23;100128.94;;;29.79;45.90
75794;BME280;64418;47.536;19.074;2023-07-13T11:25:50;100128.81;;;30.17;45.19
75794;BME280;64418;47.536;19.074;2023-07-13T11:28:21;100122.69;;;30.03;45.63
75794;BME280;64418;47.536;19.074;2023-07-13T11:30:49;100130.56;;;30.42;44.71
75794;BME280;64418;47.536;19.074;2023-07-13T11:33:18;100126.75;;;30.26;45.06
75794;BME280;64418;47.536;19.074;2023-07-13T11:35:59;100120.38;;;30.05;44.98
75794;BME280;64418;47.536;19.074;2023-07-13T11:38:32;100116.88;;;30.86;44.19
75794;BME280;64418;47.536;19.074;2023-07-13T11:41:22;100114.44;;;30.72;42.93
75794;BME280;64418;47.536;19.074;2023-07-13T11:44:14;100118.53;;;30.87;43.00
75794;BME280;64418;47.536;19.074;2023-07-13T11:46:45;100117.59;;;30.83;42.67
75794;BME280;64418;47.536;19.074;2023-07-13T11:49:15;100117.03;;;31.50;40.71
75794;BME280;64418;47.536;19.074;2023-07-13T11:52:02;100110.09;;;30.50;42.25
75794;BME280;64418;47.536;19.074;2023-07-13T11:54:31;100118.22;;;30.55;42.50
75794;BME280;64418;47.536;19.074;2023-07-13T11:56:59;100115.00;;;30.33;43.29
75794;BME280;64418;47.536;19.074;2023-07-13T11:59:27;100121.16;;;30.26;43.58
75794;BME280;64418;47.536;19.074;2023-07-13T12:02:17;100121.53;;;30.57;43.12
75794;BME280;64418;47.536;19.074;2023-07-13T12:04:46;100121.06;;;30.68;43.13
75794;BME280;64418;47.536;19.074;2023-07-13T12:07:15;100122.09;;;30.51;43.35
75794;BME280;64418;47.536;19.074;2023-07-13T12:09:44;100115.31;;;30.19;44.18
75794;BME280;64418;47.536;19.074;2023-07-13T12:12:11;100117.81;;;30.66;42.64
75794;BME280;64418;47.536;19.074;2023-07-13T12:14:38;100115.69;;;30.30;43.17
75794;BME280;64418;47.536;19.074;2023-07-13T12:17:24;100110.41;;;30.16;42.88
75794;BME280;64418;47.536;19.074;2023-07-13T12:19:52;100099.28;;;30.28;43.00
75794;BME280;64418;47.536;19.074;2023-07-13T12:22:20;100089.31;;;29.86;44.13
75794;BME280;64418;47.536;19.074;2023-07-13T12:24:48;100110.59;;;30.77;42.10
75794;BME280;64418;47.536;19.074;2023-07-13T12:27:34;100116.88;;;30.62;42.25
75794;BME280;64418;47.536;19.074;2023-07-13T12:30:02;100106.03;;;30.72;42.25
75794;BME280;64418;47.536;19.074;2023-07-13T12:32:28;100109.41;;;30.33;42.91
75794;BME280;64418;47.536;19.074;2023-07-13T12:34:56;100097.91;;;30.01;44.05
75794;BME280;64418;47.536;19.074;2023-07-13T12:37:42;100093.38;;;30.99;42.16
75794;BME280;64418;47.536;19.074;2023-07-13T12:40:13;100106.41;;;30.95;42.52
75794;BME280;64418;47.536;19.074;2023-07-13T12:43:01;100090.53;;;30.87;42.69
75794;BME280;64418;47.536;19.074;2023-07-13T12:45:27;100093.56;;;30.57;43.24
75794;BME280;64418;47.536;19.074;2023-07-13T12:47:55;100091.00;;;30.65;42.76
75794;BME280;64418;47.536;19.074;2023-07-13T12:50:23;100094.72;;;30.69;42.56
75794;BME280;64418;47.536;19.074;2023-07-13T12:52:53;100092.91;;;30.97;41.75
75794;BME280;64418;47.536;19.074;2023-07-13T12:55:22;100085.31;;;31.46;40.93
75794;BME280;64418;47.536;19.074;2023-07-13T12:57:52;100090.91;;;31.58;40.29
75794;BME280;64418;47.536;19.074;2023-07-13T13:00:25;100096.16;;;31.60;40.08
75794;BME280;64418;47.536;19.074;2023-07-13T13:02:53;100090.59;;;31.23;40.89
75794;BME280;64418;47.536;19.074;2023-07-13T13:05:40;100076.97;;;31.74;39.70
75794;BME280;64418;47.536;19.074;2023-07-13T13:08:08;100085.50;;;32.05;38.43
75794;BME280;64418;47.536;19.074;2023-07-13T13:10:37;100092.53;;;31.47;39.78
75794;BME280;64418;47.536;19.074;2023-07-13T13:13:23;100098.22;;;31.50;39.84
75794;BME280;64418;47.536;19.074;2023-07-13T13:15:50;100094.47;;;31.83;38.87
75794;BME280;64418;47.536;19.074;2023-07-13T13:18:17;100082.53;;;31.34;40.12
75794;BME280;64418;47.536;19.074;2023-07-13T13:21:03;100068.16;;;31.35;39.92
75794;BME280;64418;47.536;19.074;2023-07-13T13:23:29;100068.13;;;31.47;40.04
75794;BME280;64418;47.536;19.074;2023-07-13T13:25:56;100070.81;;;31.68;39.23
75794;BME280;64418;47.536;19.074;2023-07-13T13:28:42;100081.09;;;31.92;39.33
75794;BME280;64418;47.536;19.074;2023-07-13T13:31:09;100065.62;;;31.06;40.25
75794;BME280;64418;47.536;19.074;2023-07-13T13:33:35;100055.13;;;30.67;40.84
75794;BME280;64418;47.536;19.074;2023-07-13T13:36:23;100070.75;;;31.28;40.34
75794;BME280;64418;47.536;19.074;2023-07-13T13:38:50;100076.59;;;31.23;40.41
75794;BME280;64418;47.536;19.074;2023-07-13T13:41:19;100081.22;;;31.31;39.28
75794;BME280;64418;47.536;19.074;2023-07-13T13:44:09;100072.25;;;30.89;39.69
75794;BME280;64418;47.536;19.074;2023-07-13T13:46:35;100060.03;;;31.06;40.12